Ruo'Ergai, China
Current Conditions -  °F | °C
As of 9:00 AM on Sunday 26 Oct 2014 (Local Time) from ZLLL Reporting Station
Clear Clear  
Wind Chill: 40°   Ceiling: Unl
Heat Index: 43°   Visibility: 4mi
Dew Point: 37°   Wind: 4mph
Humidity: 81%   Direction: 330°NNW
Pressure: 30.27"   Gusts: NA
Location:  33.58°N, 102.97°E
Report Text: ZLLL 260100Z 33002MPS 7000 NSC 06/03 Q1025 NOSIG
Loading
Personal Weather Stations






























Interactive Weather Map
Tropical Storm Tracking
New forecast layout! Learn more

10-Day Weather Forecast

Advertisements
Track Severe Weather on mobile